Pagina principale
METAR-TAF:

METAR-TAF

Aeroporti :

Aeroporto di Torino-Caselle

Torino, Italia

latitudine: 45-13N, longitudine: 007-39E, altezza: 301 m

Osservazione

Il bollettino è stato emesso 1 ora e 7 minuti fa, alle 09:50 UTC
Vento 5 kt da est/nord-est
Temperature 18°C
Umidità 68%
Pressione 1020 hPa
Visibilità: 7000 m
Nubi sparse ad un'altezza di 8000 ft

METAR: LIMF 150950Z 06005KT 7000 SCT080 18/12 Q1020

Ora: 12:57 (10:57 UTC)

Previsione

Il bollettino è stato emesso 5 ore e 57 minuti fa, alle 05:00 UTC
Previsione valida dal 15 alle 06 UTC al 16 alle 06 UTC
Vento 5 kt da direzioni variabili
Visibilità 10 km o più
Nubi sparse ad un'altezza di 2500 ft
Nuvoloso ad un'altezza di 6000 ft
Probabilità 40% :
Temporaneamente
dal 15 alle 06 UTC al 15 alle 24 UTC
Visibilità: 4000 m
rovesci di pioggia

TAF: LIMF 150500Z 1506/1606 VRB05KT 9999 SCT025 BKN060 PROB40 TEMPO 1506/1524 4000 SHRA

Osservazioni e previsioni meteorologiche di più di 4000 aeroporti (messaggi METAR e TAF).

Le stazioni disponibili sono rappresentate dai dischi gialli e rossi sulla carta.

Puntare il mouse per vedere il nome della stazione.

Clicca sopra per visualizzare le osservazioni e previsioni meteorologiche.

Per cambiare la mappa : fare clic sui pulsanti verdi con una croce nera per ingrandire, il pulsante verde con un trattino per diminuire, o sulla freccia verde per le mappe adiacenti.


METAR-TAF: